Time;durP1;ratioP1;P1;durP2;ratioP2;P2;SDS_P1;SDS_P2;PMS_P1;PMS_P2;Temp;Humidity;BMP_temperature;BMP_pressure;BME280_temperature;BME280_humidity;BME280_pressure;Samples;Min_cycle;Max_cycle;Signal;HPM_P1;HPM_P2
2023/08/04 00:01:50;;;;;;;;;;;;;;;15.72;94.26;100505.22;4889899;29;20060;-72
2023/08/04 00:04:15;;;;;;;8.13;3.95;;;;;;;15.72;94.25;100497.09;4890260;29;20018;-73
2023/08/04 00:06:41;;;;;;;;;;;;;;;15.68;94.47;100505.00;4884532;29;20127;-73
2023/08/04 00:09:06;;;;;;;8.88;3.45;;;;;;;15.67;95.20;100503.44;4916915;29;19915;-72
2023/08/04 00:11:32;;;;;;;;;;;;;;;15.59;93.71;100517.66;4902810;29;20032;-74
2023/08/04 00:13:58;;;;;;;11.43;3.78;;;;;;;15.59;94.24;100516.84;4903564;29;20590;-72
2023/08/04 00:16:23;;;;;;;;;;;;;;;15.59;94.32;100517.66;4898608;29;20036;-74
2023/08/04 00:18:49;;;;;;;10.98;4.25;;;;;;;15.57;95.11;100523.34;4915693;29;20388;-73
2023/08/04 00:21:14;;;;;;;;;;;;;;;15.50;94.33;100531.06;4910339;28;20525;-72
2023/08/04 00:23:40;;;;;;;8.85;3.90;;;;;;;15.49;94.04;100528.69;4903326;29;19926;-70
2023/08/04 00:26:05;;;;;;;;;;;;;;;15.38;93.98;100528.16;4889573;29;20040;-72
2023/08/04 00:28:31;;;;;;;8.25;3.83;;;;;;;15.33;93.92;100544.44;4900138;29;19918;-71
2023/08/04 00:30:56;;;;;;;;;;;;;;;15.29;93.99;100543.44;4885595;29;20034;-71
2023/08/04 00:33:22;;;;;;;10.98;3.78;;;;;;;15.27;94.61;100538.38;4885864;29;20004;-72
2023/08/04 00:35:48;;;;;;;9.43;4.30;;;;;;;15.24;94.49;100532.78;4889120;29;20522;-73
2023/08/04 00:38:13;;;;;;;;;;;;;;;15.17;94.62;100548.59;4889260;29;20036;-74
2023/08/04 00:40:39;;;;;;;7.63;3.38;;;;;;;15.12;94.50;100544.13;4887497;29;19922;-72
2023/08/04 00:43:05;;;;;;;11.57;3.58;;;;;;;15.09;94.85;100543.91;4885579;29;20490;-73
2023/08/04 00:45:33;;;;;;;7.82;3.88;;;;;;;15.09;95.44;100549.31;4885639;29;20048;-73
2023/08/04 00:47:59;;;;;;;5.45;2.88;;;;;;;15.03;95.32;100549.41;4887298;29;20040;-72
2023/08/04 00:50:26;;;;;;;5.40;3.35;;;;;;;14.99;94.97;100547.66;4904499;29;20044;-71
2023/08/04 00:52:52;;;;;;;7.93;2.92;;;;;;;14.93;94.82;100543.47;4904555;29;20042;-73
2023/08/04 00:55:17;;;;;;;;;;;;;;;14.90;94.66;100544.88;4903960;29;20127;-72
2023/08/04 00:57:43;;;;;;;6.63;3.22;;;;;;;14.88;94.80;100557.84;4902863;29;19919;-72
2023/08/04 01:00:09;;;;;;;;;;;;;;;14.79;94.86;100562.38;4916029;29;20131;-72
2023/08/04 01:02:35;;;;;;;6.78;3.20;;;;;;;14.75;94.59;100574.84;4884370;29;19919;-72
2023/08/04 01:05:04;;;;;;;;;;;;;;;14.73;94.88;100563.56;4888462;29;20371;-73
2023/08/04 01:07:38;;;;;;;8.45;3.25;;;;;;;14.67;95.23;100568.25;4917226;29;20299;-72
2023/08/04 01:10:16;;;;;;;8.00;2.92;;;;;;;14.65;95.44;100569.69;4900442;29;20046;-71
2023/08/04 01:12:59;;;;;;;7.50;3.00;;;;;;;14.59;95.40;100565.47;4904488;29;20123;-72
2023/08/04 01:15:26;;;;;;;7.43;3.15;;;;;;;14.56;95.60;100563.38;4918686;29;20056;-71
2023/08/04 01:17:51;;;;;;;13.07;3.72;;;;;;;14.54;95.91;100565.56;4905774;29;20549;-74
2023/08/04 01:20:17;;;;;;;6.82;3.20;;;;;;;14.53;96.25;100566.69;4889309;29;20048;-72
2023/08/04 01:22:43;;;;;;;8.27;3.17;;;;;;;14.47;96.08;100564.06;4893178;29;20043;-73
2023/08/04 01:25:09;;;;;;;;;;;;;;;14.47;96.39;100558.69;4904544;29;20091;-72
2023/08/04 01:27:42;;;;;;;11.13;3.17;;;;;;;14.47;96.57;100566.78;4889545;29;19919;-72
2023/08/04 01:30:13;;;;;;;5.32;2.97;;;;;;;14.48;96.62;100570.25;4892044;29;20096;-72
2023/08/04 01:32:39;;;;;;;6.10;3.22;;;;;;;14.47;96.46;100572.16;4919482;29;20050;-74
2023/08/04 01:35:07;;;;;;;7.05;2.97;;;;;;;14.43;96.29;100573.84;4891381;29;20036;-72
2023/08/04 01:37:32;;;;;;;7.82;3.40;;;;;;;14.40;96.15;100579.03;4874745;29;20072;-72
2023/08/04 01:39:58;;;;;;;7.28;3.00;;;;;;;14.38;96.29;100582.00;4921320;29;20048;-71
2023/08/04 01:42:24;;;;;;;7.70;3.60;;;;;;;14.38;96.53;100583.91;4879175;29;20040;-71
2023/08/04 01:44:50;;;;;;;7.68;3.33;;;;;;;14.37;96.45;100585.00;4939654;28;20055;-71
2023/08/04 01:47:15;;;;;;;7.65;3.63;;;;;;;14.36;96.82;100596.88;4860377;29;20149;-71
2023/08/04 01:49:41;;;;;;;8.60;3.08;;;;;;;14.38;97.25;100597.38;4924052;29;20106;-71
2023/08/04 01:52:07;;;;;;;6.72;3.20;;;;;;;14.37;97.25;100598.47;4908188;29;20032;-74
2023/08/04 01:54:32;;;;;;;6.88;3.45;;;;;;;14.38;96.96;100608.97;4906550;29;20123;-72
2023/08/04 01:56:58;;;;;;;13.68;3.58;;;;;;;14.40;97.39;100609.44;4906444;29;20032;-72
2023/08/04 01:59:24;;;;;;;9.30;4.15;;;;;;;14.42;97.98;100612.63;4889434;29;20039;-72
2023/08/04 02:01:50;;;;;;;;;;;;;;;14.45;97.71;100614.75;4892260;29;20514;-73
2023/08/04 02:04:15;;;;;;;5.75;2.70;;;;;;;14.46;97.95;100627.16;4923290;29;19919;-72
2023/08/04 02:06:42;;;;;;;7.22;3.03;;;;;;;14.50;98.33;100626.56;4890244;29;20036;-72
2023/08/04 02:09:07;;;;;;;;;;;;;;;14.51;98.70;100628.97;4891840;29;20685;-73
2023/08/04 02:11:33;;;;;;;6.35;3.50;;;;;;;14.51;98.77;100628.97;4920355;29;19918;-71
2023/08/04 02:13:59;;;;;;;;;;;;;;;14.53;99.03;100634.03;4894622;29;20396;-70
2023/08/04 02:16:25;;;;;;;7.13;4.00;;;;;;;14.54;98.96;100633.75;4876531;29;19919;-74
2023/08/04 02:18:50;;;;;;;5.90;3.28;;;;;;;14.56;98.66;100636.13;4905122;29;20093;-72
2023/08/04 02:21:16;;;;;;;8.63;3.47;;;;;;;14.59;99.25;100640.94;4906176;29;20135;-72
2023/08/04 02:23:41;;;;;;;6.93;3.50;;;;;;;14.61;99.10;100644.94;4903520;29;20036;-71
2023/08/04 02:26:07;;;;;;;;;;;;;;;14.64;99.06;100646.25;4935800;28;20036;-72
2023/08/04 02:28:32;;;;;;;3.97;3.03;;;;;;;14.63;99.26;100642.75;4903075;29;19923;-73
2023/08/04 02:30:59;;;;;;;;;;;;;;;14.65;99.39;100647.84;4932797;28;20127;-73
2023/08/04 02:33:24;;;;;;;5.03;3.50;;;;;;;14.65;99.47;100650.53;4890213;29;19930;-73
2023/08/04 02:35:57;;;;;;;;;;;;;;;14.67;99.41;100648.31;4904809;29;20044;-72
2023/08/04 02:38:24;;;;;;;9.85;4.00;;;;;;;14.64;99.33;100652.44;4910940;29;19989;-73
2023/08/04 02:40:49;;;;;;;;;;;;;;;14.67;99.59;100659.09;4904240;29;20403;-71
2023/08/04 02:43:15;;;;;;;5.70;3.25;;;;;;;14.66;99.56;100662.91;4890439;29;19919;-71
2023/08/04 02:45:47;;;;;;;10.40;4.38;;;;;;;14.65;99.68;100658.63;4891036;29;20039;-73
2023/08/04 02:48:12;;;;;;;7.70;3.83;;;;;;;14.69;99.97;100659.59;4890503;29;20036;-71
2023/08/04 02:50:38;;;;;;;8.73;3.40;;;;;;;14.71;99.99;100671.69;4874723;29;20063;-72
2023/08/04 02:53:03;;;;;;;;;;;;;;;14.71;99.66;100671.69;4896026;29;20110;-73
2023/08/04 02:55:30;;;;;;;7.93;3.63;;;;;;;14.71;99.75;100670.91;4892634;29;19919;-72
2023/08/04 02:57:55;;;;;;;9.40;3.65;;;;;;;14.74;99.21;100678.38;4888504;29;20047;-71
2023/08/04 03:00:22;;;;;;;8.98;4.15;;;;;;;14.78;99.30;100679.38;4905537;29;20052;-72
2023/08/04 03:02:47;;;;;;;7.55;3.53;;;;;;;14.77;99.19;100685.88;4905731;29;20040;-73
2023/08/04 03:05:13;;;;;;;8.50;4.03;;;;;;;14.77;98.94;100691.28;4875762;29;20028;-74
2023/08/04 03:07:39;;;;;;;;;;;;;;;14.76;99.33;100695.03;4919282;29;20075;-73
2023/08/04 03:10:05;;;;;;;4.47;3.30;;;;;;;14.75;99.52;100698.84;4907968;29;19965;-72
2023/08/04 03:12:31;;;;;;;8.25;3.67;;;;;;;14.77;99.69;100696.66;4907184;29;20028;-71
2023/08/04 03:14:56;;;;;;;8.73;3.60;;;;;;;14.79;99.56;100705.25;4904338;29;20148;-71
2023/08/04 03:17:22;;;;;;;9.50;4.47;;;;;;;14.78;99.69;100703.66;4906884;29;20040;-71
2023/08/04 03:19:47;;;;;;;12.02;4.15;;;;;;;14.80;99.95;100704.16;4889642;29;20434;-74
2023/08/04 03:22:13;;;;;;;;;;;;;;;14.81;99.85;100713.81;4905253;29;20091;-74
2023/08/04 03:24:39;;;;;;;7.65;3.55;;;;;;;14.81;100.00;100708.44;4892000;29;19922;-72
2023/08/04 03:27:05;;;;;;;8.85;3.78;;;;;;;14.79;99.67;100699.84;4901905;29;20123;-73
2023/08/04 03:29:31;;;;;;;;;;;;;;;14.79;99.77;100715.22;4903963;29;20043;-73
2023/08/04 03:31:58;;;;;;;7.43;3.63;;;;;;;14.76;99.85;100713.91;4914893;29;19947;-70
2023/08/04 03:34:26;;;;;;;8.43;3.55;;;;;;;14.75;100.00;100720.41;4906185;29;20126;-71
2023/08/04 03:36:52;;;;;;;7.20;3.55;;;;;;;14.74;99.85;100718.81;4905473;29;20064;-73
2023/08/04 03:39:17;;;;;;;8.35;3.55;;;;;;;14.75;99.83;100723.09;4905657;29;20044;-72
2023/08/04 03:41:43;;;;;;;;;;;;;;;14.74;99.93;100724.22;4904501;29;20028;-72
2023/08/04 03:44:08;;;;;;;7.40;3.63;;;;;;;14.71;100.00;100722.91;4886951;29;20688;-71
2023/08/04 03:46:34;;;;;;;;;;;;;;;14.71;100.00;100719.44;4912465;29;20045;-75
2023/08/04 03:49:00;;;;;;;11.23;4.00;;;;;;;14.69;100.00;100724.28;4906413;29;19919;-72
2023/08/04 03:51:25;;;;;;;;;;;;;;;14.71;100.00;100724.81;4905290;29;20509;-72
2023/08/04 03:53:52;;;;;;;10.75;3.30;;;;;;;14.72;100.00;100721.00;4906565;29;20017;-73
2023/08/04 03:56:17;;;;;;;;;;;;;;;14.72;99.96;100718.31;4902252;29;20043;-71
2023/08/04 03:58:43;;;;;;;7.80;3.90;;;;;;;14.70;100.00;100726.72;4890002;29;20297;-73
2023/08/04 04:01:09;;;;;;;;;;;;;;;14.71;99.83;100722.13;4905286;29;20122;-73
2023/08/04 04:03:34;;;;;;;5.68;3.45;;;;;;;14.69;99.83;100732.38;4904602;29;20419;-71
2023/08/04 04:06:00;;;;;;;;;;;;;;;14.69;100.00;100727.78;4903588;29;20035;-72
2023/08/04 04:08:26;;;;;;;9.13;3.67;;;;;;;14.68;99.96;100728.88;4890502;29;19919;-72
2023/08/04 04:10:51;;;;;;;6.88;3.60;;;;;;;14.69;100.00;100737.75;4917801;29;20047;-72
2023/08/04 04:13:17;;;;;;;;;;;;;;;14.68;99.76;100734.28;4891694;29;20044;-73
2023/08/04 04:15:43;;;;;;;6.07;4.00;;;;;;;14.67;99.92;100734.56;4915607;29;20006;-73
2023/08/04 04:18:08;;;;;;;7.88;3.97;;;;;;;14.69;100.00;100738.56;4904026;29;20069;-72
2023/08/04 04:20:34;;;;;;;;;;;;;;;14.72;100.00;100746.06;4904097;29;20031;-72
2023/08/04 04:23:00;;;;;;;7.25;3.60;;;;;;;14.71;100.00;100741.78;4904636;29;20333;-73
2023/08/04 04:25:25;;;;;;;;;;;;;;;14.72;100.00;100747.97;4887560;29;20048;-71
2023/08/04 04:27:51;;;;;;;7.45;3.88;;;;;;;14.71;100.00;100746.38;4899860;29;19919;-74
2023/08/04 04:30:17;;;;;;;;;;;;;;;14.74;100.00;100759.25;4917322;29;20047;-71
2023/08/04 04:32:42;;;;;;;6.88;4.10;;;;;;;14.73;100.00;100766.53;4902073;29;19919;-71
2023/08/04 04:35:08;;;;;;;;;;;;;;;14.76;100.00;100767.84;4904912;29;20039;-71
2023/08/04 04:37:34;;;;;;;5.93;3.65;;;;;;;14.77;100.00;100772.16;4887622;29;19923;-72
2023/08/04 04:40:00;;;;;;;;;;;;;;;14.81;100.00;100775.84;4902544;29;20064;-71
2023/08/04 04:42:26;;;;;;;6.50;3.30;;;;;;;14.82;100.00;100769.34;4903293;29;19931;-73
2023/08/04 04:44:51;;;;;;;7.07;3.13;;;;;;;14.83;100.00;100773.63;4907149;29;20593;-72
2023/08/04 04:47:18;;;;;;;6.93;3.85;;;;;;;14.85;100.00;100771.47;4917642;29;20052;-74
2023/08/04 04:49:44;;;;;;;7.15;3.67;;;;;;;14.88;100.00;100767.34;4901500;29;20036;-71
2023/08/04 04:52:19;;;;;;;7.25;3.90;;;;;;;14.88;100.00;100778.16;4919557;29;20039;-72
2023/08/04 04:54:45;;;;;;;7.32;3.75;;;;;;;14.89;100.00;100777.84;4902992;29;20075;-72
2023/08/04 04:57:11;;;;;;;7.70;4.15;;;;;;;14.91;100.00;100783.75;4900622;29;20047;-72
2023/08/04 04:59:37;;;;;;;;;;;;;;;14.91;100.00;100786.47;4873002;29;20041;-72
2023/08/04 05:02:02;;;;;;;6.85;2.97;;;;;;;14.89;100.00;100780.53;4892783;29;20058;-71
2023/08/04 05:04:28;;;;;;;6.75;3.47;;;;;;;14.89;100.00;100771.66;4890120;29;20047;-71
2023/08/04 05:06:53;;;;;;;;;;;;;;;14.89;99.92;100788.63;4873665;29;20040;-72
2023/08/04 05:09:19;;;;;;;7.82;3.28;;;;;;;14.88;100.00;100778.94;4879103;29;19926;-73
2023/08/04 05:11:45;;;;;;;7.43;3.45;;;;;;;14.92;100.00;100789.94;4906398;29;20068;-72
2023/08/04 05:14:10;;;;;;;6.70;3.47;;;;;;;14.93;99.97;100792.34;4903856;29;20040;-71
2023/08/04 05:16:36;;;;;;;6.10;3.60;;;;;;;14.95;100.00;100790.13;4889051;29;20036;-71
2023/08/04 05:19:02;;;;;;;9.85;3.65;;;;;;;14.97;100.00;100796.06;4903456;29;20498;-72
2023/08/04 05:21:33;;;;;;;8.10;3.60;;;;;;;15.01;99.90;100799.75;4904705;29;20041;-72
2023/08/04 05:23:59;;;;;;;5.97;3.20;;;;;;;15.10;100.00;100801.75;4904079;29;20048;-73
2023/08/04 05:26:24;;;;;;;5.78;3.53;;;;;;;15.15;99.72;100791.66;4886529;29;20100;-73
2023/08/04 05:28:50;;;;;;;7.93;3.22;;;;;;;15.21;99.24;100797.75;4904195;29;21641;-73
2023/08/04 05:31:15;;;;;;;9.60;3.67;;;;;;;15.29;98.82;100802.47;4894510;29;20522;-72
2023/08/04 05:33:41;;;;;;;;;;;;;;;15.35;99.64;100795.06;4896776;29;20036;-74
2023/08/04 05:36:06;;;;;;;7.47;3.70;;;;;;;15.39;100.00;100793.38;4905154;29;19915;-72
2023/08/04 05:38:32;;;;;;;8.07;4.35;;;;;;;15.43;100.00;100800.56;4902089;29;20048;-71
2023/08/04 05:41:01;;;;;;;;;;;;;;;15.50;100.00;100811.75;4888556;29;20032;-71
2023/08/04 05:43:28;;;;;;;4.63;2.70;;;;;;;15.53;100.00;100813.88;4913703;29;19923;-74
2023/08/04 05:46:02;;;;;;;7.07;3.17;;;;;;;15.59;100.00;100819.16;4903482;29;20710;-71
2023/08/04 05:48:30;;;;;;;8.73;3.45;;;;;;;15.62;99.71;100813.19;4902720;29;20032;-74
2023/08/04 05:50:55;;;;;;;7.60;3.70;;;;;;;15.70;100.00;100817.88;4903765;29;20099;-74
2023/08/04 05:53:21;;;;;;;;;;;;;;;15.76;100.00;100824.75;4891138;29;21060;-73
2023/08/04 05:55:47;;;;;;;6.30;3.70;;;;;;;15.79;99.76;100826.88;4885757;29;21081;-73
2023/08/04 05:58:12;;;;;;;;;;;;;;;15.81;99.72;100822.75;4905204;29;20051;-73
2023/08/04 06:00:38;;;;;;;5.10;3.08;;;;;;;15.84;99.16;100834.84;4904785;29;20428;-73
2023/08/04 06:03:07;;;;;;;;;;;;;;;15.89;99.85;100834.75;4920272;29;20054;-73
2023/08/04 06:05:32;;;;;;;7.10;3.17;;;;;;;15.87;99.51;100831.56;4879114;29;19954;-71
2023/08/04 06:07:58;;;;;;;;;;;;;;;15.88;98.60;100835.84;4888511;29;20059;-72
2023/08/04 06:10:25;;;;;;;6.05;2.80;;;;;;;15.94;98.79;100842.75;4892417;29;19930;-72
2023/08/04 06:12:51;;;;;;;6.32;2.80;;;;;;;15.94;97.64;100845.44;4910239;29;20066;-72
2023/08/04 06:15:17;;;;;;;5.40;3.03;;;;;;;15.98;97.83;100851.03;4892678;29;20027;-72
2023/08/04 06:17:43;;;;;;;;;;;;;;;16.02;98.43;100855.53;4891614;29;20046;-71
2023/08/04 06:20:09;;;;;;;6.38;2.70;;;;;;;16.04;98.83;100855.22;4921356;29;19962;-70
2023/08/04 06:22:36;;;;;;;;;;;;;;;16.08;99.02;100854.31;4905794;29;20078;-72
2023/08/04 06:25:03;;;;;;;7.13;2.80;;;;;;;16.11;98.68;100853.72;4891599;29;19961;-74
2023/08/04 06:27:29;;;;;;;4.53;2.55;;;;;;;16.16;98.35;100852.81;4888928;29;20077;-73
2023/08/04 06:29:55;;;;;;;5.80;2.60;;;;;;;16.17;96.54;100856.31;4919361;29;20489;-72
2023/08/04 06:32:21;;;;;;;;;;;;;;;16.24;97.42;100876.41;4935631;28;20147;-71
2023/08/04 06:34:46;;;;;;;6.35;3.25;;;;;;;16.29;97.45;100867.38;4903635;29;19921;-72
2023/08/04 06:37:12;;;;;;;;;;;;;;;16.32;97.73;100864.88;4938527;28;20445;-71
2023/08/04 06:39:38;;;;;;;7.35;2.50;;;;;;;16.34;97.35;100867.28;4905997;29;19926;-71
2023/08/04 06:42:04;;;;;;;;;;;;;;;16.35;97.31;100880.47;4906002;29;20048;-71
2023/08/04 06:44:30;;;;;;;5.47;2.83;;;;;;;16.31;94.36;100878.69;4889028;29;20303;-70
2023/08/04 06:46:56;;;;;;;5.00;2.38;;;;;;;16.34;95.48;100880.78;4905823;29;20040;-71
2023/08/04 06:49:21;;;;;;;;;;;;;;;16.41;97.46;100894.69;4906723;29;20043;-72
2023/08/04 06:51:49;;;;;;;6.00;2.80;;;;;;;16.33;96.52;100884.59;4904430;29;19926;-70
2023/08/04 06:54:18;;;;;;;7.20;2.90;;;;;;;16.34;95.14;100883.50;4909525;29;20562;-71
2023/08/04 06:56:44;;;;;;;7.13;2.83;;;;;;;16.40;96.60;100897.69;4889725;29;20087;-73
2023/08/04 06:59:10;;;;;;;;;;;;;;;16.41;95.44;100897.38;4892713;29;20067;-74
2023/08/04 07:01:36;;;;;;;4.68;2.63;;;;;;;16.48;95.87;100900.47;4906884;29;20038;-73
2023/08/04 07:04:01;;;;;;;;;;;;;;;16.56;97.09;100902.44;4911293;29;20590;-72
2023/08/04 07:06:27;;;;;;;9.45;2.28;;;;;;;16.54;95.40;100907.38;4920725;29;19923;-72
2023/08/04 07:08:53;;;;;;;;;;;;;;;16.59;95.56;100907.22;4888382;29;20047;-73
2023/08/04 07:11:18;;;;;;;7.03;2.55;;;;;;;16.58;95.19;100908.34;4894461;29;19919;-72
2023/08/04 07:13:44;;;;;;;;;;;;;;;16.59;93.62;100920.75;4905097;29;20040;-72
2023/08/04 07:16:11;;;;;;;8.55;2.63;;;;;;;16.62;93.84;100911.25;4902290;29;19946;-72
2023/08/04 07:18:38;;;;;;;5.68;2.35;;;;;;;16.64;94.94;100920.63;4904945;29;20044;-72
2023/08/04 07:21:11;;;;;;;3.40;2.05;;;;;;;16.66;93.92;100917.63;4891560;29;20152;-74
2023/08/04 07:23:38;;;;;;;5.97;2.50;;;;;;;16.67;93.67;100924.66;4900796;29;20048;-72
2023/08/04 07:26:06;;;;;;;5.18;2.63;;;;;;;16.70;94.04;100918.66;4909824;29;20043;-70
2023/08/04 07:28:32;;;;;;;6.80;2.40;;;;;;;16.73;92.95;100928.03;4906219;29;20071;-72
2023/08/04 07:31:01;;;;;;;5.35;2.45;;;;;;;16.82;94.70;100921.63;4905105;29;20123;-74
2023/08/04 07:33:27;;;;;;;7.50;3.10;;;;;;;16.90;95.16;100918.16;4902039;29;20139;-71
2023/08/04 07:35:54;;;;;;;11.00;3.17;;;;;;;16.98;94.64;100932.06;4935174;28;20047;-73
2023/08/04 07:38:21;;;;;;;7.25;2.90;;;;;;;16.98;92.26;100927.44;4893246;29;20044;-70
2023/08/04 07:40:46;;;;;;;8.85;2.92;;;;;;;17.07;92.46;100931.03;4890208;29;20028;-75
2023/08/04 07:43:13;;;;;;;;;;;;;;;17.12;91.98;100930.88;4907537;29;20036;-71
2023/08/04 07:45:40;;;;;;;10.95;3.17;;;;;;;17.18;91.50;100931.56;4905640;29;19919;-72
2023/08/04 07:48:05;;;;;;;6.72;2.45;;;;;;;17.26;92.26;100930.00;4906555;29;20063;-71
2023/08/04 07:50:31;;;;;;;;;;;;;;;17.29;90.28;100934.81;4914787;29;20087;-73
2023/08/04 07:52:57;;;;;;;5.38;2.15;;;;;;;17.34;91.64;100945.50;4891324;29;19919;-72
2023/08/04 07:55:23;;;;;;;;;;;;;;;17.29;88.97;100941.03;4909040;29;20032;-71
2023/08/04 07:57:49;;;;;;;4.68;2.20;;;;;;;17.41;87.96;100943.16;4904778;29;19919;-72
2023/08/04 08:00:15;;;;;;;5.70;1.80;;;;;;;17.58;88.87;100939.75;4923615;29;20099;-73
2023/08/04 08:02:43;;;;;;;6.72;1.85;;;;;;;17.68;88.20;100953.81;4903956;29;20059;-73
2023/08/04 08:05:09;;;;;;;5.95;2.00;;;;;;;17.76;89.18;100944.16;4890960;29;20036;-72
2023/08/04 08:07:34;;;;;;;6.78;2.08;;;;;;;17.78;88.16;100960.09;4902677;29;20032;-73
2023/08/04 08:10:01;;;;;;;5.43;2.00;;;;;;;17.81;88.58;100946.72;4890961;29;20040;-73
2023/08/04 08:12:27;;;;;;;4.45;1.45;;;;;;;17.90;88.25;100949.47;4867023;29;20040;-73
2023/08/04 08:14:53;;;;;;;7.22;2.42;;;;;;;18.01;91.98;100950.75;4902744;29;20099;-73
2023/08/04 08:17:19;;;;;;;;;;;;;;;18.00;90.38;100962.72;4905385;29;20035;-72
2023/08/04 08:19:45;;;;;;;1.98;1.40;;;;;;;18.00;88.19;100957.28;4910056;29;19919;-72
2023/08/04 08:22:10;;;;;;;4.25;1.60;;;;;;;18.02;88.33;100963.22;4894816;29;20115;-73
2023/08/04 08:24:36;;;;;;;;;;;;;;;17.99;88.67;100969.25;4905363;29;20048;-72
2023/08/04 08:27:02;;;;;;;3.03;1.50;;;;;;;17.97;87.51;100968.78;4900733;29;21314;-72
2023/08/04 08:29:27;;;;;;;3.65;1.40;;;;;;;18.03;87.47;100975.66;4903312;29;20087;-73
2023/08/04 08:31:53;;;;;;;5.97;1.95;;;;;;;18.05;85.24;100965.28;4903964;29;20028;-72
2023/08/04 08:34:19;;;;;;;3.03;1.52;;;;;;;18.05;83.03;100968.00;4904152;29;20126;-71
2023/08/04 08:36:45;;;;;;;4.40;1.73;;;;;;;18.14;86.81;100966.09;4917720;29;20405;-72
2023/08/04 08:39:10;;;;;;;3.38;1.70;;;;;;;18.23;88.10;100985.91;4889997;29;20195;-71
2023/08/04 08:41:37;;;;;;;4.82;1.75;;;;;;;18.24;88.36;100976.66;4871143;29;20040;-72
2023/08/04 08:44:02;;;;;;;3.15;1.80;;;;;;;18.24;86.29;100986.72;4873224;29;20040;-72
2023/08/04 08:46:29;;;;;;;4.78;1.70;;;;;;;18.25;88.18;100989.09;4917910;29;20051;-72
2023/08/04 08:48:58;;;;;;;3.63;2.20;;;;;;;18.22;88.37;100988.91;4898496;29;20068;-72
2023/08/04 08:51:25;;;;;;;3.80;1.60;;;;;;;18.15;87.32;101000.22;4900983;29;20126;-74
2023/08/04 08:53:52;;;;;;;3.63;1.83;;;;;;;18.02;86.16;101001.16;4889409;29;20036;-72
2023/08/04 08:56:19;;;;;;;3.97;1.70;;;;;;;17.93;89.45;101009.22;4905500;29;20044;-72
2023/08/04 08:58:45;;;;;;;4.65;1.52;;;;;;;17.62;88.55;101027.38;4902931;29;20056;-72
2023/08/04 09:01:11;;;;;;;6.22;1.65;;;;;;;17.42;89.79;101031.41;4900160;29;20123;-74
2023/08/04 09:03:38;;;;;;;2.72;1.50;;;;;;;16.97;89.69;101033.25;4917482;29;20490;-71
2023/08/04 09:06:04;;;;;;;7.75;1.92;;;;;;;16.72;90.48;101034.63;4903919;29;20048;-71
2023/08/04 09:08:31;;;;;;;2.42;1.50;;;;;;;16.63;91.50;101029.09;4890736;29;20036;-71
2023/08/04 09:10:58;;;;;;;2.63;1.60;;;;;;;16.60;91.09;101029.72;4903781;29;20090;-72
2023/08/04 09:13:26;;;;;;;2.55;1.60;;;;;;;16.60;91.59;101024.31;4903947;29;20064;-73
2023/08/04 09:15:54;;;;;;;4.07;2.05;;;;;;;16.63;93.08;101016.38;4918447;29;20040;-71
2023/08/04 09:18:28;;;;;;;3.83;1.73;;;;;;;16.86;95.46;101017.25;4906812;29;20128;-74
2023/08/04 09:21:08;;;;;;;4.05;2.20;;;;;;;17.04;94.57;101026.31;4890202;29;20150;-71
2023/08/04 09:23:35;;;;;;;5.88;2.33;;;;;;;17.32;96.01;101020.81;4893336;29;20048;-72
2023/08/04 09:26:02;;;;;;;3.88;2.10;;;;;;;17.45;96.33;101019.94;4904931;29;20075;-73
2023/08/04 09:28:29;;;;;;;2.88;1.50;;;;;;;17.55;94.86;101033.25;4887852;29;20151;-72
2023/08/04 09:31:02;;;;;;;3.47;1.50;;;;;;;17.53;92.11;101032.72;4903717;29;20036;-71
2023/08/04 09:33:28;;;;;;;2.60;1.70;;;;;;;17.72;93.54;101033.34;4907373;29;20709;-71
2023/08/04 09:36:01;;;;;;;;;;;;;;;17.85;94.31;101033.59;4893848;29;20040;-71
2023/08/04 09:38:28;;;;;;;3.25;1.70;;;;;;;17.81;91.49;101033.41;4907829;29;19930;-71
2023/08/04 09:41:05;;;;;;;3.00;1.55;;;;;;;17.85;91.20;101033.59;4890931;29;20044;-72
2023/08/04 09:43:31;;;;;;;2.63;1.40;;;;;;;17.87;91.10;101031.34;4889529;29;20533;-72
2023/08/04 09:46:06;;;;;;;;;;;;;;;17.85;91.26;101034.38;4922370;29;20036;-71
2023/08/04 09:48:32;;;;;;;3.95;1.35;;;;;;;17.90;92.64;101039.69;4904095;29;19970;-73
2023/08/04 09:51:09;;;;;;;3.85;1.85;;;;;;;17.98;91.57;101029.97;4907937;29;20028;-73
2023/08/04 09:53:42;;;;;;;2.47;1.30;;;;;;;18.13;91.34;101039.59;4892130;29;20044;-73
2023/08/04 09:56:10;;;;;;;2.22;1.52;;;;;;;18.30;90.12;101034.25;4907580;29;20176;-73
2023/08/04 09:58:37;;;;;;;2.42;1.35;;;;;;;18.52;91.96;101033.34;4892929;29;20028;-73
2023/08/04 10:01:03;;;;;;;3.42;1.90;;;;;;;18.72;90.28;101024.66;4903881;29;20490;-72
2023/08/04 10:03:28;;;;;;;3.30;1.50;;;;;;;18.88;88.83;101032.31;4905246;29;20111;-72
2023/08/04 10:06:05;;;;;;;4.80;1.88;;;;;;;19.02;86.96;101032.97;4893319;29;20039;-74
2023/08/04 10:08:33;;;;;;;4.68;1.50;;;;;;;19.13;84.30;101028.81;4921927;29;20048;-73
2023/08/04 10:10:59;;;;;;;5.05;2.03;;;;;;;19.18;84.79;101036.81;4896266;29;20061;-74
2023/08/04 10:13:26;;;;;;;2.20;1.45;;;;;;;19.17;81.65;101035.22;4896448;29;20040;-73
2023/08/04 10:15:53;;;;;;;3.55;1.83;;;;;;;19.13;84.12;101038.88;4887673;29;20047;-73
2023/08/04 10:18:19;;;;;;;3.45;1.70;;;;;;;19.08;84.16;101037.91;4921012;29;20044;-72
2023/08/04 10:20:45;;;;;;;4.15;2.05;;;;;;;19.11;87.08;101052.78;4933682;28;20261;-73
2023/08/04 10:23:12;;;;;;;4.53;1.73;;;;;;;18.79;82.67;101057.53;4888896;29;20040;-73
2023/08/04 10:25:51;;;;;;;3.90;2.00;;;;;;;18.72;82.44;101068.06;4892486;29;20474;-71
2023/08/04 10:28:17;;;;;;;3.65;1.83;;;;;;;18.73;86.45;101061.50;4920292;29;20036;-71
2023/08/04 10:30:42;;;;;;;3.28;1.80;;;;;;;18.75;88.24;101066.59;4893875;29;20044;-72
2023/08/04 10:33:09;;;;;;;3.05;1.90;;;;;;;18.53;86.73;101071.00;4891661;29;20031;-72
2023/08/04 10:36:09;;;;;;;3.60;1.30;;;;;;;18.36;82.55;101086.44;4911810;29;20046;-71
2023/08/04 10:38:49;;;;;;;2.92;1.45;;;;;;;18.37;84.33;101069.84;4936215;28;20032;-72
2023/08/04 10:41:15;;;;;;;1.95;1.20;;;;;;;18.28;82.81;101077.13;4890294;29;20071;-74
2023/08/04 10:43:59;;;;;;;2.25;1.20;;;;;;;18.31;85.17;101089.28;4907519;29;20524;-71
2023/08/04 10:46:25;;;;;;;3.42;1.60;;;;;;;18.19;83.97;101079.81;4906975;29;20581;-72
2023/08/04 10:48:50;;;;;;;1.75;1.10;;;;;;;18.21;83.85;101072.16;4906176;29;20154;-74
2023/08/04 10:51:17;;;;;;;2.95;1.67;;;;;;;18.25;85.38;101080.47;4915593;29;20075;-71
2023/08/04 10:53:43;;;;;;;3.60;1.60;;;;;;;18.25;84.09;101075.84;4906476;29;20479;-72
2023/08/04 10:56:09;;;;;;;3.90;1.55;;;;;;;18.23;84.45;101077.28;4888271;29;20040;-71
2023/08/04 10:58:35;;;;;;;2.90;1.20;;;;;;;18.17;83.00;101078.53;4892285;29;20040;-72
2023/08/04 11:01:02;;;;;;;1.90;1.40;;;;;;;18.19;81.79;101082.53;4908353;29;20502;-72
2023/08/04 11:03:30;;;;;;;3.25;1.40;;;;;;;18.32;83.96;101085.44;4920851;29;20120;-73
2023/08/04 11:05:56;;;;;;;2.47;1.50;;;;;;;18.44;83.45;101085.66;4903797;29;20046;-71
2023/08/04 11:08:23;;;;;;;2.40;1.20;;;;;;;18.71;81.73;101082.75;4903756;29;20048;-75
2023/08/04 11:10:55;;;;;;;3.13;1.48;;;;;;;18.89;82.28;101085.47;4908504;29;20518;-71
2023/08/04 11:13:22;;;;;;;2.55;1.30;;;;;;;18.89;82.62;101085.47;4891411;29;20044;-72
2023/08/04 11:15:49;;;;;;;2.53;1.25;;;;;;;18.92;82.01;101079.41;4888972;29;20506;-71
2023/08/04 11:18:21;;;;;;;2.53;1.38;;;;;;;18.96;81.23;101077.66;4891331;29;20040;-71
2023/08/04 11:20:48;;;;;;;2.90;1.40;;;;;;;18.97;80.56;101073.84;4907886;29;20796;-74
2023/08/04 11:23:14;;;;;;;5.43;1.67;;;;;;;18.94;81.67;101069.84;4889198;29;20040;-71
2023/08/04 11:25:40;;;;;;;3.67;1.50;;;;;;;18.88;80.30;101076.53;4905539;29;20062;-72
2023/08/04 11:28:07;;;;;;;4.40;1.60;;;;;;;18.90;79.35;101076.22;4889921;29;20147;-72
2023/08/04 11:30:34;;;;;;;3.25;1.88;;;;;;;18.95;81.99;101076.06;4917412;29;20044;-70
2023/08/04 11:33:01;;;;;;;3.90;1.85;;;;;;;18.94;80.43;101086.13;4907327;29;20047;-72
2023/08/04 11:35:30;;;;;;;4.38;2.33;;;;;;;18.97;83.68;101082.00;4908563;29;20767;-71